sensor_id;sensor_type;location;lat;lon;timestamp;temperature;humidity
52941;DHT22;62001;53.366;6.636;2022-09-09T00:03:44;15.20;99.90
52941;DHT22;62001;53.366;6.636;2022-09-09T00:06:23;15.20;99.90
52941;DHT22;62001;53.366;6.636;2022-09-09T00:09:01;15.10;99.90
52941;DHT22;62001;53.366;6.636;2022-09-09T00:11:42;15.10;99.90
52941;DHT22;62001;53.366;6.636;2022-09-09T00:14:15;15.10;99.90
52941;DHT22;62001;53.366;6.636;2022-09-09T00:16:47;15.10;99.90
52941;DHT22;62001;53.366;6.636;2022-09-09T00:22:05;15.00;99.90
52941;DHT22;62001;53.366;6.636;2022-09-09T00:24:41;15.00;99.90
52941;DHT22;62001;53.366;6.636;2022-09-09T00:30:16;14.90;99.90
52941;DHT22;62001;53.366;6.636;2022-09-09T00:32:46;14.90;99.90
52941;DHT22;62001;53.366;6.636;2022-09-09T00:35:25;14.80;99.90
52941;DHT22;62001;53.366;6.636;2022-09-09T00:37:56;14.80;99.90
52941;DHT22;62001;53.366;6.636;2022-09-09T00:40:35;14.80;99.90
52941;DHT22;62001;53.366;6.636;2022-09-09T00:43:31;14.80;99.90
52941;DHT22;62001;53.366;6.636;2022-09-09T00:46:01;14.80;99.90
52941;DHT22;62001;53.366;6.636;2022-09-09T00:48:50;14.70;99.90
52941;DHT22;62001;53.366;6.636;2022-09-09T00:51:26;14.80;99.90
52941;DHT22;62001;53.366;6.636;2022-09-09T00:54:28;14.70;99.90
52941;DHT22;62001;53.366;6.636;2022-09-09T00:59:47;14.70;99.90
52941;DHT22;62001;53.366;6.636;2022-09-09T01:02:30;14.70;99.90
52941;DHT22;62001;53.366;6.636;2022-09-09T01:05:07;14.70;99.90
52941;DHT22;62001;53.366;6.636;2022-09-09T01:07:35;14.60;99.90
52941;DHT22;62001;53.366;6.636;2022-09-09T01:10:09;14.50;99.90
52941;DHT22;62001;53.366;6.636;2022-09-09T01:12:42;14.40;99.90
52941;DHT22;62001;53.366;6.636;2022-09-09T01:15:29;14.40;99.90
52941;DHT22;62001;53.366;6.636;2022-09-09T01:18:07;14.30;99.90
52941;DHT22;62001;53.366;6.636;2022-09-09T01:26:05;14.00;99.90
52941;DHT22;62001;53.366;6.636;2022-09-09T01:28:34;13.80;99.90
52941;DHT22;62001;53.366;6.636;2022-09-09T01:31:04;13.70;99.90
52941;DHT22;62001;53.366;6.636;2022-09-09T01:33:31;13.60;99.90
52941;DHT22;62001;53.366;6.636;2022-09-09T01:38:49;13.50;99.90
52941;DHT22;62001;53.366;6.636;2022-09-09T01:41:15;13.40;99.90
52941;DHT22;62001;53.366;6.636;2022-09-09T01:43:40;13.30;99.90
52941;DHT22;62001;53.366;6.636;2022-09-09T01:46:07;13.30;99.90
52941;DHT22;62001;53.366;6.636;2022-09-09T01:48:33;13.20;99.90
52941;DHT22;62001;53.366;6.636;2022-09-09T01:50:59;13.20;99.90
52941;DHT22;62001;53.366;6.636;2022-09-09T01:53:25;13.20;99.90
52941;DHT22;62001;53.366;6.636;2022-09-09T02:04:08;13.20;99.90
52941;DHT22;62001;53.366;6.636;2022-09-09T02:06:40;13.20;99.90
52941;DHT22;62001;53.366;6.636;2022-09-09T02:09:07;13.20;99.90
52941;DHT22;62001;53.366;6.636;2022-09-09T02:11:35;13.20;99.90
52941;DHT22;62001;53.366;6.636;2022-09-09T02:14:10;13.30;99.90
52941;DHT22;62001;53.366;6.636;2022-09-09T02:16:50;13.30;99.90
52941;DHT22;62001;53.366;6.636;2022-09-09T02:19:37;13.30;99.90
52941;DHT22;62001;53.366;6.636;2022-09-09T02:22:04;13.30;99.90
52941;DHT22;62001;53.366;6.636;2022-09-09T02:24:34;13.20;99.90
52941;DHT22;62001;53.366;6.636;2022-09-09T02:27:03;13.30;99.90
52941;DHT22;62001;53.366;6.636;2022-09-09T02:29:37;13.30;99.90
52941;DHT22;62001;53.366;6.636;2022-09-09T02:32:08;13.30;99.90
52941;DHT22;62001;53.366;6.636;2022-09-09T02:34:40;13.30;99.90
52941;DHT22;62001;53.366;6.636;2022-09-09T02:37:09;13.40;99.90
52941;DHT22;62001;53.366;6.636;2022-09-09T02:39:35;13.40;99.90
52941;DHT22;62001;53.366;6.636;2022-09-09T02:42:01;13.40;99.90
52941;DHT22;62001;53.366;6.636;2022-09-09T02:44:29;13.50;99.90
52941;DHT22;62001;53.366;6.636;2022-09-09T02:52:43;13.60;99.90
52941;DHT22;62001;53.366;6.636;2022-09-09T02:55:21;13.70;99.90
52941;DHT22;62001;53.366;6.636;2022-09-09T02:57:50;13.70;99.90
52941;DHT22;62001;53.366;6.636;2022-09-09T03:00:23;13.80;99.90
52941;DHT22;62001;53.366;6.636;2022-09-09T03:02:50;13.80;99.90
52941;DHT22;62001;53.366;6.636;2022-09-09T03:05:16;13.80;99.90
52941;DHT22;62001;53.366;6.636;2022-09-09T03:07:42;13.80;99.90
52941;DHT22;62001;53.366;6.636;2022-09-09T03:10:08;13.80;99.90
52941;DHT22;62001;53.366;6.636;2022-09-09T03:12:35;13.80;99.90
52941;DHT22;62001;53.366;6.636;2022-09-09T03:15:01;13.90;99.90
52941;DHT22;62001;53.366;6.636;2022-09-09T03:17:27;13.90;99.90
52941;DHT22;62001;53.366;6.636;2022-09-09T03:19:53;13.90;99.90
52941;DHT22;62001;53.366;6.636;2022-09-09T03:22:20;13.90;99.90
52941;DHT22;62001;53.366;6.636;2022-09-09T03:24:47;13.90;99.90
52941;DHT22;62001;53.366;6.636;2022-09-09T03:27:13;13.90;99.90
52941;DHT22;62001;53.366;6.636;2022-09-09T03:29:40;13.90;99.90
52941;DHT22;62001;53.366;6.636;2022-09-09T03:32:05;13.90;99.90
52941;DHT22;62001;53.366;6.636;2022-09-09T03:34:31;13.90;99.90
52941;DHT22;62001;53.366;6.636;2022-09-09T03:36:57;13.90;99.90
52941;DHT22;62001;53.366;6.636;2022-09-09T03:39:23;13.90;99.90
52941;DHT22;62001;53.366;6.636;2022-09-09T03:41:49;13.90;99.90
52941;DHT22;62001;53.366;6.636;2022-09-09T03:44:14;13.90;99.90
52941;DHT22;62001;53.366;6.636;2022-09-09T03:46:40;13.90;99.90
52941;DHT22;62001;53.366;6.636;2022-09-09T03:49:06;14.00;99.90
52941;DHT22;62001;53.366;6.636;2022-09-09T03:51:32;14.00;99.90
52941;DHT22;62001;53.366;6.636;2022-09-09T03:54:01;14.00;99.90
52941;DHT22;62001;53.366;6.636;2022-09-09T03:56:27;14.00;99.90
52941;DHT22;62001;53.366;6.636;2022-09-09T03:58:53;14.10;99.90
52941;DHT22;62001;53.366;6.636;2022-09-09T04:01:19;14.10;99.90
52941;DHT22;62001;53.366;6.636;2022-09-09T04:03:45;14.20;99.90
52941;DHT22;62001;53.366;6.636;2022-09-09T04:06:12;14.20;99.90
52941;DHT22;62001;53.366;6.636;2022-09-09T04:08:39;14.30;99.90
52941;DHT22;62001;53.366;6.636;2022-09-09T04:11:06;14.30;99.90
52941;DHT22;62001;53.366;6.636;2022-09-09T04:13:34;14.30;99.90
52941;DHT22;62001;53.366;6.636;2022-09-09T04:16:01;14.40;99.90
52941;DHT22;62001;53.366;6.636;2022-09-09T04:18:27;14.40;99.90
52941;DHT22;62001;53.366;6.636;2022-09-09T04:20:57;14.40;99.90
52941;DHT22;62001;53.366;6.636;2022-09-09T04:23:24;14.40;99.90
52941;DHT22;62001;53.366;6.636;2022-09-09T04:25:54;14.40;99.90
52941;DHT22;62001;53.366;6.636;2022-09-09T04:28:22;14.50;99.90
52941;DHT22;62001;53.366;6.636;2022-09-09T04:30:48;14.40;99.90
52941;DHT22;62001;53.366;6.636;2022-09-09T04:33:14;14.40;99.90
52941;DHT22;62001;53.366;6.636;2022-09-09T04:35:46;14.50;99.90
52941;DHT22;62001;53.366;6.636;2022-09-09T04:38:12;14.50;99.90
52941;DHT22;62001;53.366;6.636;2022-09-09T04:40:38;14.50;99.90
52941;DHT22;62001;53.366;6.636;2022-09-09T04:43:08;14.40;99.90
52941;DHT22;62001;53.366;6.636;2022-09-09T04:45:34;14.40;99.90
52941;DHT22;62001;53.366;6.636;2022-09-09T04:48:00;14.50;99.90
52941;DHT22;62001;53.366;6.636;2022-09-09T04:50:27;14.40;99.90
52941;DHT22;62001;53.366;6.636;2022-09-09T04:52:54;14.50;99.90
52941;DHT22;62001;53.366;6.636;2022-09-09T04:55:19;14.50;99.90
52941;DHT22;62001;53.366;6.636;2022-09-09T04:57:45;14.60;99.90
52941;DHT22;62001;53.366;6.636;2022-09-09T05:00:12;14.60;99.90
52941;DHT22;62001;53.366;6.636;2022-09-09T05:02:39;14.60;99.90
52941;DHT22;62001;53.366;6.636;2022-09-09T05:05:06;14.70;99.90
52941;DHT22;62001;53.366;6.636;2022-09-09T05:07:32;14.70;99.90
52941;DHT22;62001;53.366;6.636;2022-09-09T05:09:58;14.70;99.90
52941;DHT22;62001;53.366;6.636;2022-09-09T05:12:24;14.80;99.90
52941;DHT22;62001;53.366;6.636;2022-09-09T05:14:54;14.80;99.90
52941;DHT22;62001;53.366;6.636;2022-09-09T05:17:20;14.80;99.90
52941;DHT22;62001;53.366;6.636;2022-09-09T05:19:45;14.80;99.90
52941;DHT22;62001;53.366;6.636;2022-09-09T05:22:11;14.90;99.90
52941;DHT22;62001;53.366;6.636;2022-09-09T05:24:37;14.90;99.90
52941;DHT22;62001;53.366;6.636;2022-09-09T05:27:04;14.90;99.90
52941;DHT22;62001;53.366;6.636;2022-09-09T05:29:32;14.90;99.90
52941;DHT22;62001;53.366;6.636;2022-09-09T05:32:00;14.90;99.90
52941;DHT22;62001;53.366;6.636;2022-09-09T05:34:26;14.90;99.90
52941;DHT22;62001;53.366;6.636;2022-09-09T05:36:52;14.90;99.90
52941;DHT22;62001;53.366;6.636;2022-09-09T05:39:19;14.90;99.90
52941;DHT22;62001;53.366;6.636;2022-09-09T05:41:44;14.90;99.90
52941;DHT22;62001;53.366;6.636;2022-09-09T05:44:10;14.90;99.90
52941;DHT22;62001;53.366;6.636;2022-09-09T05:46:36;14.80;99.90
52941;DHT22;62001;53.366;6.636;2022-09-09T05:49:02;14.90;99.90
52941;DHT22;62001;53.366;6.636;2022-09-09T05:51:29;14.90;99.90
52941;DHT22;62001;53.366;6.636;2022-09-09T05:53:58;14.90;99.90
52941;DHT22;62001;53.366;6.636;2022-09-09T05:56:26;14.80;99.90
52941;DHT22;62001;53.366;6.636;2022-09-09T05:58:53;14.90;99.90
52941;DHT22;62001;53.366;6.636;2022-09-09T06:01:24;14.90;99.90
52941;DHT22;62001;53.366;6.636;2022-09-09T06:03:51;14.90;99.90
52941;DHT22;62001;53.366;6.636;2022-09-09T06:06:20;14.90;99.90
52941;DHT22;62001;53.366;6.636;2022-09-09T06:08:46;14.90;99.90
52941;DHT22;62001;53.366;6.636;2022-09-09T06:11:23;14.90;99.90
52941;DHT22;62001;53.366;6.636;2022-09-09T06:13:50;14.90;99.90
52941;DHT22;62001;53.366;6.636;2022-09-09T06:16:20;14.90;99.90
52941;DHT22;62001;53.366;6.636;2022-09-09T06:18:49;14.90;99.90
52941;DHT22;62001;53.366;6.636;2022-09-09T06:21:21;14.90;99.90
52941;DHT22;62001;53.366;6.636;2022-09-09T06:23:48;14.90;99.90
52941;DHT22;62001;53.366;6.636;2022-09-09T06:26:17;14.90;99.90
52941;DHT22;62001;53.366;6.636;2022-09-09T06:28:45;14.90;99.90
52941;DHT22;62001;53.366;6.636;2022-09-09T06:31:12;14.90;99.90
52941;DHT22;62001;53.366;6.636;2022-09-09T06:33:40;14.90;99.90
52941;DHT22;62001;53.366;6.636;2022-09-09T06:36:18;15.00;99.90
52941;DHT22;62001;53.366;6.636;2022-09-09T06:38:45;15.00;99.90
52941;DHT22;62001;53.366;6.636;2022-09-09T06:41:13;15.00;99.90
52941;DHT22;62001;53.366;6.636;2022-09-09T06:43:39;15.00;99.90
52941;DHT22;62001;53.366;6.636;2022-09-09T06:48:34;15.10;99.90
52941;DHT22;62001;53.366;6.636;2022-09-09T06:51:14;15.20;99.90
52941;DHT22;62001;53.366;6.636;2022-09-09T06:53:41;15.20;99.90
52941;DHT22;62001;53.366;6.636;2022-09-09T06:58:42;15.30;99.90
52941;DHT22;62001;53.366;6.636;2022-09-09T07:01:13;15.30;99.90
52941;DHT22;62001;53.366;6.636;2022-09-09T07:03:40;15.30;99.90
52941;DHT22;62001;53.366;6.636;2022-09-09T07:06:07;15.40;99.90
52941;DHT22;62001;53.366;6.636;2022-09-09T07:08:34;15.40;99.90
52941;DHT22;62001;53.366;6.636;2022-09-09T07:11:04;15.50;99.90
52941;DHT22;62001;53.366;6.636;2022-09-09T07:13:31;15.50;99.90
52941;DHT22;62001;53.366;6.636;2022-09-09T07:16:11;15.50;99.90
52941;DHT22;62001;53.366;6.636;2022-09-09T07:18:37;15.60;99.90
52941;DHT22;62001;53.366;6.636;2022-09-09T07:21:03;15.60;99.90
52941;DHT22;62001;53.366;6.636;2022-09-09T07:23:30;15.70;99.90
52941;DHT22;62001;53.366;6.636;2022-09-09T07:25:57;15.70;99.90
52941;DHT22;62001;53.366;6.636;2022-09-09T07:28:24;15.80;99.90
52941;DHT22;62001;53.366;6.636;2022-09-09T07:31:00;15.90;99.90
52941;DHT22;62001;53.366;6.636;2022-09-09T07:33:28;15.90;99.90
52941;DHT22;62001;53.366;6.636;2022-09-09T07:36:08;16.10;99.90
52941;DHT22;62001;53.366;6.636;2022-09-09T07:38:42;16.30;99.90
52941;DHT22;62001;53.366;6.636;2022-09-09T07:41:16;16.60;99.90
52941;DHT22;62001;53.366;6.636;2022-09-09T07:43:45;16.90;99.90
52941;DHT22;62001;53.366;6.636;2022-09-09T07:46:12;17.00;99.90
52941;DHT22;62001;53.366;6.636;2022-09-09T07:48:44;16.90;99.90
52941;DHT22;62001;53.366;6.636;2022-09-09T07:51:15;16.80;99.90
52941;DHT22;62001;53.366;6.636;2022-09-09T07:53:51;16.80;99.90
52941;DHT22;62001;53.366;6.636;2022-09-09T07:56:18;16.80;99.90
52941;DHT22;62001;53.366;6.636;2022-09-09T07:58:48;16.80;99.90
52941;DHT22;62001;53.366;6.636;2022-09-09T08:01:17;16.80;99.90
52941;DHT22;62001;53.366;6.636;2022-09-09T08:03:44;16.80;99.90
52941;DHT22;62001;53.366;6.636;2022-09-09T08:06:11;16.80;99.90
52941;DHT22;62001;53.366;6.636;2022-09-09T08:08:38;16.90;99.90
52941;DHT22;62001;53.366;6.636;2022-09-09T08:11:13;17.00;99.90
52941;DHT22;62001;53.366;6.636;2022-09-09T08:13:40;17.10;99.90
52941;DHT22;62001;53.366;6.636;2022-09-09T08:18:34;17.20;99.90
52941;DHT22;62001;53.366;6.636;2022-09-09T08:21:12;17.30;99.90
52941;DHT22;62001;53.366;6.636;2022-09-09T08:23:39;17.30;99.90
52941;DHT22;62001;53.366;6.636;2022-09-09T08:26:21;17.40;99.90
52941;DHT22;62001;53.366;6.636;2022-09-09T08:28:52;17.60;99.90
52941;DHT22;62001;53.366;6.636;2022-09-09T08:31:20;17.80;99.90
52941;DHT22;62001;53.366;6.636;2022-09-09T08:33:47;17.90;99.90
52941;DHT22;62001;53.366;6.636;2022-09-09T08:36:37;18.00;99.90
52941;DHT22;62001;53.366;6.636;2022-09-09T08:39:05;18.10;99.90
52941;DHT22;62001;53.366;6.636;2022-09-09T08:50:02;18.20;99.90
52941;DHT22;62001;53.366;6.636;2022-09-09T08:52:38;18.20;99.90
52941;DHT22;62001;53.366;6.636;2022-09-09T08:55:28;18.20;99.90
52941;DHT22;62001;53.366;6.636;2022-09-09T08:58:01;18.40;99.90
52941;DHT22;62001;53.366;6.636;2022-09-09T09:00:44;18.50;99.90
52941;DHT22;62001;53.366;6.636;2022-09-09T09:11:54;18.90;99.90
52941;DHT22;62001;53.366;6.636;2022-09-09T09:14:23;18.90;99.90
52941;DHT22;62001;53.366;6.636;2022-09-09T09:17:00;18.80;99.90
52941;DHT22;62001;53.366;6.636;2022-09-09T09:19:28;18.80;99.90
52941;DHT22;62001;53.366;6.636;2022-09-09T09:24:55;19.00;99.90
52941;DHT22;62001;53.366;6.636;2022-09-09T09:27:36;19.00;99.90
52941;DHT22;62001;53.366;6.636;2022-09-09T09:30:14;19.10;99.90
52941;DHT22;62001;53.366;6.636;2022-09-09T09:32:53;19.10;99.90
52941;DHT22;62001;53.366;6.636;2022-09-09T09:35:19;19.10;99.90
52941;DHT22;62001;53.366;6.636;2022-09-09T09:37:45;19.10;99.90
52941;DHT22;62001;53.366;6.636;2022-09-09T09:40:17;19.20;99.90
52941;DHT22;62001;53.366;6.636;2022-09-09T09:42:54;19.30;99.90
52941;DHT22;62001;53.366;6.636;2022-09-09T09:45:35;19.40;99.90
52941;DHT22;62001;53.366;6.636;2022-09-09T09:48:11;19.40;99.90
52941;DHT22;62001;53.366;6.636;2022-09-09T09:50:54;19.50;99.90
52941;DHT22;62001;53.366;6.636;2022-09-09T09:53:26;19.50;99.90
52941;DHT22;62001;53.366;6.636;2022-09-09T09:56:12;19.40;99.90
52941;DHT22;62001;53.366;6.636;2022-09-09T10:01:29;19.20;99.90
52941;DHT22;62001;53.366;6.636;2022-09-09T10:04:14;18.90;99.90
52941;DHT22;62001;53.366;6.636;2022-09-09T10:06:41;18.80;99.90
52941;DHT22;62001;53.366;6.636;2022-09-09T10:14:49;18.60;99.90
52941;DHT22;62001;53.366;6.636;2022-09-09T10:17:36;18.70;99.90
52941;DHT22;62001;53.366;6.636;2022-09-09T10:20:46;18.90;99.90
52941;DHT22;62001;53.366;6.636;2022-09-09T10:28:45;19.20;99.90
52941;DHT22;62001;53.366;6.636;2022-09-09T10:31:35;19.20;99.90
52941;DHT22;62001;53.366;6.636;2022-09-09T10:40:29;19.40;99.90
52941;DHT22;62001;53.366;6.636;2022-09-09T11:00:53;20.00;99.90
52941;DHT22;62001;53.366;6.636;2022-09-09T11:02:57;19.90;99.90
52941;DHT22;62001;53.366;6.636;2022-09-09T11:05:40;19.70;99.90
52941;DHT22;62001;53.366;6.636;2022-09-09T11:08:17;19.60;99.90
52941;DHT22;62001;53.366;6.636;2022-09-09T11:16:19;19.40;99.90
52941;DHT22;62001;53.366;6.636;2022-09-09T11:18:46;19.60;99.90
52941;DHT22;62001;53.366;6.636;2022-09-09T11:21:37;19.60;99.90
52941;DHT22;62001;53.366;6.636;2022-09-09T11:26:52;19.40;99.90
52941;DHT22;62001;53.366;6.636;2022-09-09T11:40:58;18.60;99.90
52941;DHT22;62001;53.366;6.636;2022-09-09T11:43:40;18.80;99.90
52941;DHT22;62001;53.366;6.636;2022-09-09T11:46:07;19.00;99.90
52941;DHT22;62001;53.366;6.636;2022-09-09T11:48:46;19.10;99.90
52941;DHT22;62001;53.366;6.636;2022-09-09T11:51:27;19.40;99.90
52941;DHT22;62001;53.366;6.636;2022-09-09T11:53:58;19.70;99.90
52941;DHT22;62001;53.366;6.636;2022-09-09T11:59:06;20.10;99.90
52941;DHT22;62001;53.366;6.636;2022-09-09T12:01:37;20.30;99.90
52941;DHT22;62001;53.366;6.636;2022-09-09T12:09:49;20.70;99.90
52941;DHT22;62001;53.366;6.636;2022-09-09T12:12:27;20.80;99.90
52941;DHT22;62001;53.366;6.636;2022-09-09T12:17:42;20.90;99.90
52941;DHT22;62001;53.366;6.636;2022-09-09T12:28:20;20.50;99.90
52941;DHT22;62001;53.366;6.636;2022-09-09T12:31:07;20.80;99.90
52941;DHT22;62001;53.366;6.636;2022-09-09T12:33:40;21.00;99.90
52941;DHT22;62001;53.366;6.636;2022-09-09T12:36:14;21.00;99.90
52941;DHT22;62001;53.366;6.636;2022-09-09T12:38:42;20.90;99.90
52941;DHT22;62001;53.366;6.636;2022-09-09T12:43:45;20.60;99.90
52941;DHT22;62001;53.366;6.636;2022-09-09T12:46:23;20.40;99.90
52941;DHT22;62001;53.366;6.636;2022-09-09T12:48:52;20.30;99.90
52941;DHT22;62001;53.366;6.636;2022-09-09T12:51:32;20.30;99.90
52941;DHT22;62001;53.366;6.636;2022-09-09T12:53:58;20.40;99.90
52941;DHT22;62001;53.366;6.636;2022-09-09T12:56:32;20.50;99.90
52941;DHT22;62001;53.366;6.636;2022-09-09T12:58:58;20.60;99.90
52941;DHT22;62001;53.366;6.636;2022-09-09T13:01:27;20.90;99.90
52941;DHT22;62001;53.366;6.636;2022-09-09T13:03:54;21.00;99.90
52941;DHT22;62001;53.366;6.636;2022-09-09T13:06:22;21.10;99.90
52941;DHT22;62001;53.366;6.636;2022-09-09T13:08:52;21.10;99.90
52941;DHT22;62001;53.366;6.636;2022-09-09T13:11:40;21.00;99.90
52941;DHT22;62001;53.366;6.636;2022-09-09T13:14:28;20.80;99.90
52941;DHT22;62001;53.366;6.636;2022-09-09T13:17:00;20.70;99.90
52941;DHT22;62001;53.366;6.636;2022-09-09T13:19:29;20.70;99.90
52941;DHT22;62001;53.366;6.636;2022-09-09T13:21:57;20.70;99.90
52941;DHT22;62001;53.366;6.636;2022-09-09T13:24:33;20.90;99.90
52941;DHT22;62001;53.366;6.636;2022-09-09T13:27:02;21.10;99.90
52941;DHT22;62001;53.366;6.636;2022-09-09T13:29:30;21.20;99.90
52941;DHT22;62001;53.366;6.636;2022-09-09T13:34:38;21.20;99.90
52941;DHT22;62001;53.366;6.636;2022-09-09T13:37:06;21.30;99.90
52941;DHT22;62001;53.366;6.636;2022-09-09T13:39:34;21.30;99.90
52941;DHT22;62001;53.366;6.636;2022-09-09T13:42:02;21.40;99.90
52941;DHT22;62001;53.366;6.636;2022-09-09T13:44:31;21.50;99.90
52941;DHT22;62001;53.366;6.636;2022-09-09T13:47:18;21.50;99.90
52941;DHT22;62001;53.366;6.636;2022-09-09T13:49:49;21.30;99.90
52941;DHT22;62001;53.366;6.636;2022-09-09T13:52:17;21.30;99.90
52941;DHT22;62001;53.366;6.636;2022-09-09T13:54:51;21.20;99.90
52941;DHT22;62001;53.366;6.636;2022-09-09T13:57:24;21.20;99.90
52941;DHT22;62001;53.366;6.636;2022-09-09T13:59:52;21.10;99.90
52941;DHT22;62001;53.366;6.636;2022-09-09T14:02:18;21.10;99.90
52941;DHT22;62001;53.366;6.636;2022-09-09T14:04:45;21.00;99.90
52941;DHT22;62001;53.366;6.636;2022-09-09T14:07:15;21.00;99.90
52941;DHT22;62001;53.366;6.636;2022-09-09T14:09:42;21.00;99.90
52941;DHT22;62001;53.366;6.636;2022-09-09T14:12:11;21.00;99.90
52941;DHT22;62001;53.366;6.636;2022-09-09T14:14:38;21.00;99.90
52941;DHT22;62001;53.366;6.636;2022-09-09T14:17:04;20.90;99.90
52941;DHT22;62001;53.366;6.636;2022-09-09T14:19:30;20.70;99.90
52941;DHT22;62001;53.366;6.636;2022-09-09T14:21:57;20.60;99.90
52941;DHT22;62001;53.366;6.636;2022-09-09T14:24:23;20.50;99.90
52941;DHT22;62001;53.366;6.636;2022-09-09T14:26:49;20.40;99.90
52941;DHT22;62001;53.366;6.636;2022-09-09T14:29:15;20.30;99.90
52941;DHT22;62001;53.366;6.636;2022-09-09T14:31:40;20.20;99.90
52941;DHT22;62001;53.366;6.636;2022-09-09T14:34:06;20.20;99.90
52941;DHT22;62001;53.366;6.636;2022-09-09T14:36:32;20.20;99.90
52941;DHT22;62001;53.366;6.636;2022-09-09T14:38:58;20.30;99.90
52941;DHT22;62001;53.366;6.636;2022-09-09T14:41:24;20.40;99.90
52941;DHT22;62001;53.366;6.636;2022-09-09T14:43:51;20.60;99.90
52941;DHT22;62001;53.366;6.636;2022-09-09T14:46:18;20.70;99.90
52941;DHT22;62001;53.366;6.636;2022-09-09T14:48:45;20.90;99.90
52941;DHT22;62001;53.366;6.636;2022-09-09T14:51:16;20.90;99.90
52941;DHT22;62001;53.366;6.636;2022-09-09T14:53:43;20.70;99.90
52941;DHT22;62001;53.366;6.636;2022-09-09T14:56:18;20.60;99.90
52941;DHT22;62001;53.366;6.636;2022-09-09T14:58:44;20.50;99.90
52941;DHT22;62001;53.366;6.636;2022-09-09T15:01:15;20.30;99.90
52941;DHT22;62001;53.366;6.636;2022-09-09T15:03:43;20.20;99.90
52941;DHT22;62001;53.366;6.636;2022-09-09T15:06:11;20.10;99.90
52941;DHT22;62001;53.366;6.636;2022-09-09T15:08:38;20.00;99.90
52941;DHT22;62001;53.366;6.636;2022-09-09T15:11:05;19.90;99.90
52941;DHT22;62001;53.366;6.636;2022-09-09T15:13:36;19.80;99.90
52941;DHT22;62001;53.366;6.636;2022-09-09T15:16:11;19.80;99.90
52941;DHT22;62001;53.366;6.636;2022-09-09T15:18:39;19.70;99.90
52941;DHT22;62001;53.366;6.636;2022-09-09T15:21:13;19.50;99.90
52941;DHT22;62001;53.366;6.636;2022-09-09T15:23:39;19.30;99.90
52941;DHT22;62001;53.366;6.636;2022-09-09T15:26:06;19.00;99.90
52941;DHT22;62001;53.366;6.636;2022-09-09T15:28:35;18.70;99.90
52941;DHT22;62001;53.366;6.636;2022-09-09T15:31:14;18.40;99.90
52941;DHT22;62001;53.366;6.636;2022-09-09T15:36:20;18.00;99.90
52941;DHT22;62001;53.366;6.636;2022-09-09T15:38:46;18.00;99.90
52941;DHT22;62001;53.366;6.636;2022-09-09T15:41:13;18.00;99.90
52941;DHT22;62001;53.366;6.636;2022-09-09T15:43:42;18.00;99.90
52941;DHT22;62001;53.366;6.636;2022-09-09T15:49:03;18.20;99.90
52941;DHT22;62001;53.366;6.636;2022-09-09T15:51:29;18.20;99.90
52941;DHT22;62001;53.366;6.636;2022-09-09T15:53:56;18.40;99.90
52941;DHT22;62001;53.366;6.636;2022-09-09T15:56:25;18.50;99.90
52941;DHT22;62001;53.366;6.636;2022-09-09T15:58:51;18.50;99.90
52941;DHT22;62001;53.366;6.636;2022-09-09T16:01:18;18.60;99.90
52941;DHT22;62001;53.366;6.636;2022-09-09T16:03:45;18.60;99.90
52941;DHT22;62001;53.366;6.636;2022-09-09T16:06:21;18.60;99.90
52941;DHT22;62001;53.366;6.636;2022-09-09T16:08:49;18.60;99.90
52941;DHT22;62001;53.366;6.636;2022-09-09T16:11:32;18.70;99.90
52941;DHT22;62001;53.366;6.636;2022-09-09T16:13:58;18.70;99.90
52941;DHT22;62001;53.366;6.636;2022-09-09T16:16:27;18.60;99.90
52941;DHT22;62001;53.366;6.636;2022-09-09T16:18:56;18.70;99.90
52941;DHT22;62001;53.366;6.636;2022-09-09T16:21:27;18.70;99.90
52941;DHT22;62001;53.366;6.636;2022-09-09T16:23:55;18.70;99.90
52941;DHT22;62001;53.366;6.636;2022-09-09T16:26:22;18.70;99.90
52941;DHT22;62001;53.366;6.636;2022-09-09T16:28:49;18.70;99.90
52941;DHT22;62001;53.366;6.636;2022-09-09T16:31:22;18.80;99.90
52941;DHT22;62001;53.366;6.636;2022-09-09T16:33:48;18.80;99.90
52941;DHT22;62001;53.366;6.636;2022-09-09T16:36:21;18.80;99.90
52941;DHT22;62001;53.366;6.636;2022-09-09T16:38:47;18.80;99.90
52941;DHT22;62001;53.366;6.636;2022-09-09T16:41:14;18.70;99.90
52941;DHT22;62001;53.366;6.636;2022-09-09T16:43:41;18.60;99.90
52941;DHT22;62001;53.366;6.636;2022-09-09T16:46:17;18.50;99.90
52941;DHT22;62001;53.366;6.636;2022-09-09T16:48:44;18.50;99.90
52941;DHT22;62001;53.366;6.636;2022-09-09T16:51:16;18.40;99.90
52941;DHT22;62001;53.366;6.636;2022-09-09T16:53:43;18.40;99.90
52941;DHT22;62001;53.366;6.636;2022-09-09T16:56:12;18.30;99.90
52941;DHT22;62001;53.366;6.636;2022-09-09T16:58:38;18.20;99.90
52941;DHT22;62001;53.366;6.636;2022-09-09T17:01:04;18.10;99.90
52941;DHT22;62001;53.366;6.636;2022-09-09T17:03:31;18.00;99.90
52941;DHT22;62001;53.366;6.636;2022-09-09T17:05:58;18.00;99.90
52941;DHT22;62001;53.366;6.636;2022-09-09T17:08:31;17.90;99.90
52941;DHT22;62001;53.366;6.636;2022-09-09T17:10:58;17.90;99.90
52941;DHT22;62001;53.366;6.636;2022-09-09T17:13:26;17.80;99.90
52941;DHT22;62001;53.366;6.636;2022-09-09T17:15:52;17.80;99.90
52941;DHT22;62001;53.366;6.636;2022-09-09T17:18:18;17.70;99.90
52941;DHT22;62001;53.366;6.636;2022-09-09T17:20:44;17.70;99.90
52941;DHT22;62001;53.366;6.636;2022-09-09T17:23:11;17.60;99.90
52941;DHT22;62001;53.366;6.636;2022-09-09T17:25:41;17.60;99.90
52941;DHT22;62001;53.366;6.636;2022-09-09T17:28:07;17.50;99.90
52941;DHT22;62001;53.366;6.636;2022-09-09T17:30:36;17.60;99.90
52941;DHT22;62001;53.366;6.636;2022-09-09T17:33:03;17.50;99.90
52941;DHT22;62001;53.366;6.636;2022-09-09T17:35:30;17.50;99.90
52941;DHT22;62001;53.366;6.636;2022-09-09T17:37:56;17.50;99.90
52941;DHT22;62001;53.366;6.636;2022-09-09T17:40:22;17.50;99.90
52941;DHT22;62001;53.366;6.636;2022-09-09T17:42:48;17.50;99.90
52941;DHT22;62001;53.366;6.636;2022-09-09T17:45:14;17.50;99.90
52941;DHT22;62001;53.366;6.636;2022-09-09T17:47:41;17.50;99.90
52941;DHT22;62001;53.366;6.636;2022-09-09T17:50:09;17.40;99.90
52941;DHT22;62001;53.366;6.636;2022-09-09T17:52:35;17.40;99.90
52941;DHT22;62001;53.366;6.636;2022-09-09T17:55:03;17.40;99.90
52941;DHT22;62001;53.366;6.636;2022-09-09T17:57:29;17.40;99.90
52941;DHT22;62001;53.366;6.636;2022-09-09T17:59:55;17.40;99.90
52941;DHT22;62001;53.366;6.636;2022-09-09T18:02:21;17.30;99.90
52941;DHT22;62001;53.366;6.636;2022-09-09T18:04:46;17.30;99.90
52941;DHT22;62001;53.366;6.636;2022-09-09T18:07:12;17.30;99.90
52941;DHT22;62001;53.366;6.636;2022-09-09T18:09:38;17.20;99.90
52941;DHT22;62001;53.366;6.636;2022-09-09T18:12:05;17.20;99.90
52941;DHT22;62001;53.366;6.636;2022-09-09T18:14:31;17.10;99.90
52941;DHT22;62001;53.366;6.636;2022-09-09T18:16:58;17.10;99.90